createdAt,value
2022-10-05T00:01:02.253Z,11.13
2022-10-05T00:03:11.981Z,11.11
2022-10-05T00:05:25.861Z,11.11
2022-10-05T00:07:31.496Z,11.09
2022-10-05T00:09:36.569Z,11.07
2022-10-05T00:11:41.212Z,11.05
2022-10-05T00:13:45.898Z,11.05
2022-10-05T00:15:53.125Z,11.03
2022-10-05T00:17:58.440Z,11.00
2022-10-05T00:20:13.384Z,10.94
2022-10-05T00:22:21.212Z,10.94
2022-10-05T00:24:25.980Z,10.97
2022-10-05T00:26:34.063Z,10.97
2022-10-05T00:28:40.365Z,10.96
2022-10-05T00:30:45.275Z,10.97
2022-10-05T00:32:50.076Z,10.96
2022-10-05T00:34:54.902Z,10.98
2022-10-05T00:37:00.092Z,11.00
2022-10-05T00:39:05.157Z,11.02
2022-10-05T00:41:14.722Z,11.02
2022-10-05T00:43:56.338Z,11.00
2022-10-05T00:46:08.037Z,10.97
2022-10-05T00:48:20.893Z,10.94
2022-10-05T00:50:58.905Z,10.95
2022-10-05T00:53:14.218Z,10.94
2022-10-05T00:55:30.535Z,10.90
2022-10-05T00:57:46.947Z,10.89
2022-10-05T01:00:04.497Z,10.90
2022-10-05T01:02:15.891Z,10.93
2022-10-05T01:04:28.960Z,10.95
2022-10-05T01:06:47.098Z,10.97
2022-10-05T01:09:01.939Z,10.96
2022-10-05T01:11:17.817Z,10.97
2022-10-05T01:13:32.112Z,10.93
2022-10-05T01:15:44.649Z,10.89
2022-10-05T01:17:54.586Z,10.81
2022-10-05T01:20:21.033Z,10.75
2022-10-05T01:22:36.574Z,10.72
2022-10-05T01:24:54.775Z,10.68
2022-10-05T01:27:29.088Z,10.65
2022-10-05T01:29:39.451Z,10.65
2022-10-05T01:31:52.284Z,10.66
2022-10-05T01:34:09.130Z,10.66
2022-10-05T01:36:24.805Z,10.66
2022-10-05T01:38:42.470Z,10.67
2022-10-05T01:40:57.183Z,10.68
2022-10-05T01:43:11.652Z,10.69
2022-10-05T01:45:24.386Z,10.68
2022-10-05T01:47:37.103Z,10.67
2022-10-05T01:49:47.768Z,10.63
2022-10-05T01:52:04.505Z,10.64
2022-10-05T01:54:21.904Z,10.63
2022-10-05T01:56:37.077Z,10.63
2022-10-05T01:58:52.650Z,10.63
2022-10-05T02:01:07.341Z,10.62
2022-10-05T02:03:18.124Z,10.61
2022-10-05T02:05:28.960Z,10.62
2022-10-05T02:07:37.488Z,10.65
2022-10-05T02:09:48.819Z,10.67
2022-10-05T02:11:59.338Z,10.69
2022-10-05T02:14:10.932Z,10.71
2022-10-05T02:16:21.678Z,10.71
2022-10-05T02:18:30.659Z,10.69
2022-10-05T02:20:40.254Z,10.70
2022-10-05T02:22:48.223Z,10.70
2022-10-05T02:24:58.690Z,10.71
2022-10-05T02:27:07.415Z,10.74
2022-10-05T02:29:16.679Z,10.77
2022-10-05T02:31:25.730Z,10.77
2022-10-05T02:33:32.195Z,10.73
2022-10-05T02:35:39.725Z,10.72
2022-10-05T02:37:53.751Z,10.69
2022-10-05T02:40:19.364Z,10.66
2022-10-05T02:42:30.595Z,10.62
2022-10-05T02:44:44.380Z,10.60
2022-10-05T02:46:57.709Z,10.56
2022-10-05T02:49:14.495Z,10.55
2022-10-05T02:51:24.744Z,10.56
2022-10-05T02:53:37.921Z,10.52
2022-10-05T02:55:52.467Z,10.50
2022-10-05T02:58:01.889Z,10.53
2022-10-05T03:00:13.400Z,10.53
2022-10-05T03:02:22.787Z,10.50
2022-10-05T03:04:39.477Z,10.45
2022-10-05T03:06:53.002Z,10.41
2022-10-05T03:09:02.485Z,10.38
2022-10-05T03:11:18.628Z,10.34
2022-10-05T03:13:30.553Z,10.33
2022-10-05T03:15:50.214Z,10.34
2022-10-05T03:18:03.184Z,10.34
2022-10-05T03:20:20.663Z,10.35
2022-10-05T03:22:37.721Z,10.32
2022-10-05T03:24:57.116Z,10.30
2022-10-05T03:27:14.193Z,10.31
2022-10-05T03:29:29.499Z,10.32
2022-10-05T03:31:42.888Z,10.30
2022-10-05T03:33:53.321Z,10.28
2022-10-05T03:36:06.350Z,10.28
2022-10-05T03:38:23.023Z,10.29
2022-10-05T03:40:43.461Z,10.29
2022-10-05T03:42:59.052Z,10.27
2022-10-05T03:45:09.491Z,10.25
2022-10-05T03:47:24.476Z,10.25
2022-10-05T03:49:40.398Z,10.23
2022-10-05T03:51:49.469Z,10.24
2022-10-05T03:53:59.928Z,10.23
2022-10-05T03:56:12.756Z,10.21
2022-10-05T03:58:24.128Z,10.22
2022-10-05T04:00:31.842Z,10.23
2022-10-05T04:02:43.038Z,10.23
2022-10-05T04:04:52.873Z,10.22
2022-10-05T04:07:00.149Z,10.24
2022-10-05T04:09:14.934Z,10.25
2022-10-05T04:11:26.443Z,10.25
2022-10-05T04:13:37.929Z,10.25
2022-10-05T04:15:50.589Z,10.21
2022-10-05T04:18:00.726Z,10.17
2022-10-05T04:20:16.507Z,10.10
2022-10-05T04:22:28.219Z,10.06
2022-10-05T04:24:39.651Z,10.01
2022-10-05T04:26:52.998Z,9.95
2022-10-05T04:29:05.407Z,9.90
2022-10-05T04:31:16.258Z,9.86
2022-10-05T04:33:22.176Z,9.83
2022-10-05T04:35:42.237Z,9.82
2022-10-05T04:37:55.677Z,9.79
2022-10-05T04:40:14.449Z,9.75
2022-10-05T04:42:28.916Z,9.69
2022-10-05T04:44:59.237Z,9.64
2022-10-05T04:47:35.368Z,9.64
2022-10-05T04:49:59.323Z,9.68
2022-10-05T04:52:13.057Z,9.66
2022-10-05T04:54:30.675Z,9.66
2022-10-05T04:56:39.915Z,9.63
2022-10-05T04:59:04.008Z,9.60
2022-10-05T05:01:26.225Z,9.58
2022-10-05T05:03:57.535Z,9.58
2022-10-05T05:06:17.305Z,9.58
2022-10-05T05:08:41.249Z,9.59
2022-10-05T05:11:06.908Z,9.59
2022-10-05T05:13:29.507Z,9.62
2022-10-05T05:15:45.579Z,9.64
2022-10-05T05:18:05.711Z,9.66
2022-10-05T05:20:21.981Z,9.72
2022-10-05T05:22:39.473Z,9.78
2022-10-05T05:24:58.617Z,9.84
2022-10-05T05:27:18.924Z,9.91
2022-10-05T05:29:34.079Z,9.95
2022-10-05T05:31:49.370Z,10.01
2022-10-05T05:34:03.201Z,10.05
2022-10-05T05:36:23.395Z,10.06
2022-10-05T05:38:35.277Z,10.05
2022-10-05T05:40:50.452Z,10.04
2022-10-05T05:43:00.813Z,10.07
2022-10-05T05:45:12.135Z,10.09
2022-10-05T05:47:20.601Z,10.12
2022-10-05T05:49:35.106Z,10.12
2022-10-05T05:51:46.624Z,10.15
2022-10-05T05:53:53.981Z,10.20
2022-10-05T05:56:05.790Z,10.20
2022-10-05T05:58:20.659Z,10.23
2022-10-05T06:00:31.632Z,10.22
2022-10-05T06:02:44.598Z,10.19
2022-10-05T06:04:54.721Z,10.16
2022-10-05T06:07:02.035Z,10.15
2022-10-05T06:09:16.509Z,10.12
2022-10-05T06:11:31.197Z,10.17
2022-10-05T06:13:38.793Z,10.20
2022-10-05T06:15:50.297Z,10.22
2022-10-05T06:17:58.929Z,10.23
2022-10-05T06:20:11.661Z,10.25
2022-10-05T06:22:20.644Z,10.25
2022-10-05T06:24:31.113Z,10.23
2022-10-05T06:26:59.712Z,10.23
2022-10-05T06:29:10.296Z,10.24
2022-10-05T06:31:26.834Z,10.24
2022-10-05T06:33:46.811Z,10.22
2022-10-05T06:36:07.370Z,10.26
2022-10-05T06:38:32.957Z,10.28
2022-10-05T06:40:53.382Z,10.29
2022-10-05T06:43:13.803Z,10.34
2022-10-05T06:45:56.768Z,10.44
2022-10-05T06:48:31.625Z,10.57
2022-10-05T06:50:52.873Z,10.64
2022-10-05T06:53:27.964Z,10.68
2022-10-05T06:55:42.253Z,10.71
2022-10-05T06:58:02.317Z,10.73
2022-10-05T07:00:19.214Z,10.76
2022-10-05T07:02:34.746Z,10.84
2022-10-05T07:05:02.174Z,10.92
2022-10-05T07:07:14.685Z,10.98
2022-10-05T07:09:40.439Z,11.06
2022-10-05T07:12:05.470Z,11.12
2022-10-05T07:14:29.816Z,11.21
2022-10-05T07:16:45.644Z,11.32
2022-10-05T07:19:10.369Z,11.41
2022-10-05T07:21:23.756Z,11.49
2022-10-05T07:23:42.822Z,11.58
2022-10-05T07:25:55.491Z,11.69
2022-10-05T07:28:05.893Z,11.82
2022-10-05T07:30:13.749Z,11.91
2022-10-05T07:32:33.322Z,11.98
2022-10-05T07:34:50.205Z,12.07
2022-10-05T07:37:04.691Z,12.16
2022-10-05T07:39:15.372Z,12.23
2022-10-05T07:41:26.379Z,12.34
2022-10-05T07:43:57.891Z,12.43
2022-10-05T07:46:12.998Z,12.51
2022-10-05T07:48:21.721Z,12.63
2022-10-05T07:50:33.851Z,12.75
2022-10-05T07:52:42.983Z,12.84
2022-10-05T07:55:00.535Z,12.89
2022-10-05T07:57:13.933Z,12.95
2022-10-05T07:59:29.955Z,13.01
2022-10-05T08:01:41.861Z,13.08
2022-10-05T08:03:55.831Z,13.15
2022-10-05T08:06:03.027Z,13.26
2022-10-05T08:08:19.825Z,13.33
2022-10-05T08:10:33.450Z,13.38
2022-10-05T08:12:51.546Z,13.42
2022-10-05T08:15:00.167Z,13.48
2022-10-05T08:17:12.233Z,13.56
2022-10-05T08:19:24.278Z,13.63
2022-10-05T08:21:34.530Z,13.70
2022-10-05T08:23:47.313Z,13.74
2022-10-05T08:26:04.030Z,13.81
2022-10-05T08:28:15.324Z,13.90
2022-10-05T08:30:20.803Z,14.01
2022-10-05T08:32:29.308Z,14.13
2022-10-05T08:34:44.372Z,14.24
2022-10-05T08:36:58.918Z,14.32
2022-10-05T08:39:07.851Z,14.37
2022-10-05T08:41:33.078Z,14.47
2022-10-05T08:44:05.271Z,14.59
2022-10-05T08:46:31.608Z,14.72
2022-10-05T08:49:17.107Z,14.84
2022-10-05T08:51:37.398Z,15.02
2022-10-05T08:54:17.351Z,15.11
2022-10-05T08:56:39.732Z,15.18
2022-10-05T08:59:01.802Z,15.27
2022-10-05T09:01:17.717Z,15.30
2022-10-05T09:03:41.420Z,15.42
2022-10-05T09:06:28.178Z,15.55
2022-10-05T09:09:01.065Z,15.70
2022-10-05T09:11:12.976Z,15.82
2022-10-05T09:13:36.322Z,15.96
2022-10-05T09:15:59.849Z,16.09
2022-10-05T09:18:43.431Z,16.19
2022-10-05T09:20:53.466Z,16.30
2022-10-05T09:23:09.118Z,16.36
2022-10-05T09:25:23.563Z,16.41
2022-10-05T09:27:37.836Z,16.46
2022-10-05T09:30:14.101Z,16.51
2022-10-05T09:32:52.524Z,16.56
2022-10-05T09:35:13.731Z,16.65
2022-10-05T09:37:44.275Z,16.69
2022-10-05T09:40:36.915Z,16.76
2022-10-05T09:43:05.944Z,16.83
2022-10-05T09:45:36.081Z,16.88
2022-10-05T09:48:18.289Z,16.94
2022-10-05T09:50:53.834Z,17.02
2022-10-05T09:53:19.983Z,17.11
2022-10-05T09:55:50.174Z,17.24
2022-10-05T09:58:40.636Z,17.36
2022-10-05T10:01:09.500Z,17.47
2022-10-05T10:03:41.359Z,17.58
2022-10-05T10:06:15.695Z,17.69
2022-10-05T10:08:29.381Z,17.85
2022-10-05T10:10:58.226Z,17.93
2022-10-05T10:13:21.436Z,18.00
2022-10-05T10:15:42.087Z,18.10
2022-10-05T10:18:01.231Z,18.22
2022-10-05T10:20:37.586Z,18.32
2022-10-05T10:23:21.450Z,18.43
2022-10-05T10:25:55.547Z,18.46
2022-10-05T10:28:27.403Z,18.51
2022-10-05T10:31:00.701Z,18.57
2022-10-05T10:33:21.005Z,18.62
2022-10-05T10:35:34.728Z,18.63
2022-10-05T10:38:14.913Z,18.58
2022-10-05T10:40:34.660Z,18.55
2022-10-05T10:42:49.943Z,18.60
2022-10-05T10:45:12.757Z,18.69
2022-10-05T10:47:54.458Z,18.77
2022-10-05T10:50:27.675Z,18.84
2022-10-05T10:52:48.248Z,18.89
2022-10-05T10:55:11.076Z,18.92
2022-10-05T10:57:24.315Z,18.95
2022-10-05T11:00:03.691Z,19.02
2022-10-05T11:02:22.627Z,19.10
2022-10-05T11:05:00.578Z,19.19
2022-10-05T11:08:00.249Z,19.32
2022-10-05T11:10:31.936Z,19.48
2022-10-05T11:13:10.183Z,19.57
2022-10-05T11:15:42.363Z,19.68
2022-10-05T11:17:59.359Z,19.80
2022-10-05T11:20:19.517Z,19.90
2022-10-05T11:22:40.321Z,20.01
2022-10-05T11:24:59.019Z,20.12
2022-10-05T11:27:34.228Z,20.19
2022-10-05T11:30:15.051Z,20.28
2022-10-05T11:32:55.925Z,20.33
2022-10-05T11:35:23.519Z,20.36
2022-10-05T11:37:58.006Z,20.32
2022-10-05T11:40:36.947Z,20.36
2022-10-05T11:43:17.391Z,20.46
2022-10-05T11:45:25.677Z,20.55
2022-10-05T11:47:37.563Z,20.61
2022-10-05T11:49:48.607Z,20.68
2022-10-05T11:52:02.650Z,20.74
2022-10-05T11:55:05.868Z,20.79
2022-10-05T11:57:08.785Z,20.91
2022-10-05T11:59:19.912Z,21.01
2022-10-05T12:01:33.001Z,21.09
2022-10-05T12:03:48.956Z,21.17
2022-10-05T12:06:20.861Z,21.22
2022-10-05T12:08:37.612Z,21.29
2022-10-05T12:10:50.429Z,21.40
2022-10-05T12:13:07.120Z,21.47
2022-10-05T12:15:21.105Z,21.54
2022-10-05T12:17:33.005Z,21.62
2022-10-05T12:19:44.224Z,21.73
2022-10-05T12:21:54.289Z,21.83
2022-10-05T12:24:03.807Z,21.92
2022-10-05T12:26:14.524Z,21.96
2022-10-05T12:28:27.659Z,21.96
2022-10-05T12:30:51.891Z,21.97
2022-10-05T12:33:06.351Z,21.97
2022-10-05T12:35:36.190Z,21.97
2022-10-05T12:37:51.223Z,21.98
2022-10-05T12:40:02.636Z,22.00
2022-10-05T12:42:20.419Z,21.99
2022-10-05T12:44:44.720Z,21.98
2022-10-05T12:47:04.802Z,21.97
2022-10-05T12:49:30.621Z,21.96
2022-10-05T12:51:42.466Z,22.00
2022-10-05T12:53:55.107Z,22.06
2022-10-05T12:56:09.796Z,22.09
2022-10-05T12:58:28.967Z,22.11
2022-10-05T13:00:39.257Z,22.11
2022-10-05T13:02:48.002Z,22.13
2022-10-05T13:04:59.768Z,22.17
2022-10-05T13:07:28.130Z,22.19
2022-10-05T13:09:39.281Z,22.18
2022-10-05T13:11:49.665Z,22.17
2022-10-05T13:14:07.192Z,22.21
2022-10-05T13:16:20.770Z,22.24
2022-10-05T13:18:36.397Z,22.22
2022-10-05T13:20:49.622Z,22.23
2022-10-05T13:23:01.378Z,22.25
2022-10-05T13:25:23.802Z,22.28
2022-10-05T13:27:34.119Z,22.31
2022-10-05T13:29:44.999Z,22.28
2022-10-05T13:31:53.984Z,22.26
2022-10-05T13:34:14.528Z,22.28
2022-10-05T13:36:28.582Z,22.31
2022-10-05T13:38:46.694Z,22.31
2022-10-05T13:41:01.739Z,22.30
2022-10-05T13:43:12.937Z,22.29
2022-10-05T13:45:23.298Z,22.29
2022-10-05T13:47:36.571Z,22.23
2022-10-05T13:49:49.101Z,22.18
2022-10-05T13:52:04.022Z,22.10
2022-10-05T13:54:19.828Z,22.05
2022-10-05T13:56:29.721Z,22.04
2022-10-05T13:58:41.457Z,21.99
2022-10-05T14:00:51.475Z,21.91
2022-10-05T14:03:00.039Z,21.90
2022-10-05T14:05:17.767Z,21.88
2022-10-05T14:07:33.076Z,21.87
2022-10-05T14:09:37.884Z,21.85
2022-10-05T14:11:50.311Z,21.83
2022-10-05T14:14:12.539Z,21.85
2022-10-05T14:16:24.080Z,21.79
2022-10-05T14:18:30.640Z,21.70
2022-10-05T14:20:35.413Z,21.67
2022-10-05T14:22:45.667Z,21.64
2022-10-05T14:24:55.107Z,21.60
2022-10-05T14:27:14.070Z,21.57
2022-10-05T14:29:23.569Z,21.52
2022-10-05T14:31:34.981Z,21.50
2022-10-05T14:33:40.104Z,21.46
2022-10-05T14:35:50.183Z,21.42
2022-10-05T14:37:58.927Z,21.37
2022-10-05T14:40:25.275Z,21.35
2022-10-05T14:42:44.923Z,21.31
2022-10-05T14:45:11.477Z,21.25
2022-10-05T14:47:23.478Z,21.21
2022-10-05T14:49:31.416Z,21.16
2022-10-05T14:51:36.923Z,21.12
2022-10-05T14:53:44.191Z,21.10
2022-10-05T14:56:08.600Z,21.09
2022-10-05T14:58:27.347Z,21.07
2022-10-05T15:00:46.837Z,21.03
2022-10-05T15:03:11.501Z,20.97
2022-10-05T15:05:21.988Z,20.95
2022-10-05T15:07:33.025Z,20.94
2022-10-05T15:09:49.654Z,20.91
2022-10-05T15:11:57.572Z,20.86
2022-10-05T15:14:06.000Z,20.82
2022-10-05T15:16:19.176Z,20.79
2022-10-05T15:18:36.215Z,20.77
2022-10-05T15:20:50.281Z,20.70
2022-10-05T15:23:09.474Z,20.64
2022-10-05T15:25:17.258Z,20.56
2022-10-05T15:27:31.565Z,20.52
2022-10-05T15:29:52.409Z,20.48
2022-10-05T15:32:13.143Z,20.43
2022-10-05T15:34:28.113Z,20.40
2022-10-05T15:36:40.439Z,20.36
2022-10-05T15:39:00.102Z,20.30
2022-10-05T15:41:14.753Z,20.26
2022-10-05T15:43:22.932Z,20.24
2022-10-05T15:45:33.035Z,20.18
2022-10-05T15:47:52.062Z,20.11
2022-10-05T15:50:12.791Z,20.03
2022-10-05T15:52:25.761Z,19.95
2022-10-05T15:55:10.795Z,19.88
2022-10-05T15:57:25.077Z,19.80
2022-10-05T15:59:35.418Z,19.76
2022-10-05T16:01:50.802Z,19.72
2022-10-05T16:04:05.087Z,19.67
2022-10-05T16:06:15.172Z,19.60
2022-10-05T16:08:35.626Z,19.53
2022-10-05T16:10:44.743Z,19.47
2022-10-05T16:13:06.589Z,19.45
2022-10-05T16:15:28.663Z,19.43
2022-10-05T16:17:55.722Z,19.37
2022-10-05T16:20:12.235Z,19.30
2022-10-05T16:22:26.585Z,19.22
2022-10-05T16:24:50.240Z,19.17
2022-10-05T16:27:00.771Z,19.12
2022-10-05T16:29:09.188Z,19.05
2022-10-05T16:31:20.444Z,18.99
2022-10-05T16:33:32.538Z,18.94
2022-10-05T16:35:50.195Z,18.89
2022-10-05T16:38:05.389Z,18.81
2022-10-05T16:40:17.970Z,18.74
2022-10-05T16:42:38.882Z,18.70
2022-10-05T16:44:53.346Z,18.67
2022-10-05T16:47:04.409Z,18.64
2022-10-05T16:49:27.069Z,18.62
2022-10-05T16:51:41.177Z,18.58
2022-10-05T16:53:55.964Z,18.56
2022-10-05T16:56:04.724Z,18.53
2022-10-05T16:58:18.093Z,18.51
2022-10-05T17:00:26.360Z,18.47
2022-10-05T17:03:02.666Z,18.43
2022-10-05T17:05:21.622Z,18.38
2022-10-05T17:07:54.801Z,18.34
2022-10-05T17:10:25.823Z,18.28
2022-10-05T17:12:45.279Z,18.23
2022-10-05T17:15:04.135Z,18.18
2022-10-05T17:17:27.913Z,18.16
2022-10-05T17:19:59.349Z,18.12
2022-10-05T17:22:12.576Z,18.10
2022-10-05T17:24:30.139Z,18.07
2022-10-05T17:26:56.424Z,18.02
2022-10-05T17:29:14.268Z,17.97
2022-10-05T17:31:21.358Z,17.92
2022-10-05T17:33:29.961Z,17.88
2022-10-05T17:35:52.887Z,17.85
2022-10-05T17:38:17.809Z,17.85
2022-10-05T17:40:37.121Z,17.85
2022-10-05T17:42:56.939Z,17.82
2022-10-05T17:45:38.875Z,17.78
2022-10-05T17:47:58.409Z,17.75
2022-10-05T17:50:11.543Z,17.72
2022-10-05T17:52:27.478Z,17.69
2022-10-05T17:54:52.953Z,17.64
2022-10-05T17:57:21.620Z,17.62
2022-10-05T17:59:44.378Z,17.60
2022-10-05T18:02:14.891Z,17.59
2022-10-05T18:04:37.966Z,17.56
2022-10-05T18:06:46.561Z,17.54
2022-10-05T18:09:11.668Z,17.54
2022-10-05T18:11:38.028Z,17.54
2022-10-05T18:13:46.578Z,17.53
2022-10-05T18:15:51.983Z,17.50
2022-10-05T18:17:58.946Z,17.47
2022-10-05T18:20:31.621Z,17.44
2022-10-05T18:22:37.550Z,17.39
2022-10-05T18:25:02.821Z,17.36
2022-10-05T18:27:25.534Z,17.33
2022-10-05T18:30:02.350Z,17.29
2022-10-05T18:32:16.200Z,17.26
2022-10-05T18:34:31.298Z,17.21
2022-10-05T18:37:08.490Z,17.18
2022-10-05T18:39:29.259Z,17.15
2022-10-05T18:41:47.249Z,17.14
2022-10-05T18:44:04.608Z,17.14
2022-10-05T18:46:30.491Z,17.11
2022-10-05T18:48:45.824Z,17.08
2022-10-05T18:51:00.826Z,17.06
2022-10-05T18:53:19.955Z,17.04
2022-10-05T18:55:36.804Z,17.00
2022-10-05T18:58:07.138Z,16.97
2022-10-05T19:00:18.975Z,16.91
2022-10-05T19:02:32.298Z,16.87
2022-10-05T19:04:51.580Z,16.85
2022-10-05T19:07:07.648Z,16.81
2022-10-05T19:09:27.328Z,16.78
2022-10-05T19:11:40.652Z,16.78
2022-10-05T19:13:54.388Z,16.77
2022-10-05T19:16:11.419Z,16.76
2022-10-05T19:18:35.694Z,16.75
2022-10-05T19:20:47.267Z,16.72
2022-10-05T19:23:08.642Z,16.68
2022-10-05T19:25:37.059Z,16.68
2022-10-05T19:27:54.412Z,16.62
2022-10-05T19:30:18.893Z,16.60
2022-10-05T19:32:32.903Z,16.59
2022-10-05T19:34:52.474Z,16.56
2022-10-05T19:37:08.406Z,16.52
2022-10-05T19:39:24.398Z,16.52
2022-10-05T19:41:37.989Z,16.51
2022-10-05T19:44:04.854Z,16.48
2022-10-05T19:46:20.619Z,16.43
2022-10-05T19:48:38.306Z,16.39
2022-10-05T19:50:55.103Z,16.37
2022-10-05T19:53:05.733Z,16.35
2022-10-05T19:55:16.774Z,16.32
2022-10-05T19:57:21.750Z,16.30
2022-10-05T19:59:29.069Z,16.28
2022-10-05T20:01:34.803Z,16.26
2022-10-05T20:03:40.447Z,16.22
2022-10-05T20:05:46.559Z,16.18
2022-10-05T20:07:51.610Z,16.14
2022-10-05T20:10:15.267Z,16.12
2022-10-05T20:12:20.313Z,16.12
2022-10-05T20:14:31.354Z,16.11
2022-10-05T20:16:36.724Z,16.09
2022-10-05T20:18:49.319Z,16.07
2022-10-05T20:20:54.405Z,16.08
2022-10-05T20:23:25.270Z,16.08
2022-10-05T20:25:32.976Z,16.07
2022-10-05T20:27:49.053Z,16.03
2022-10-05T20:29:53.877Z,16.01
2022-10-05T20:31:58.909Z,15.98
2022-10-05T20:34:03.837Z,15.97
2022-10-05T20:36:09.059Z,15.95
2022-10-05T20:38:14.100Z,15.92
2022-10-05T20:40:19.445Z,15.90
2022-10-05T20:42:24.258Z,15.89
2022-10-05T20:44:29.579Z,15.87
2022-10-05T20:46:34.448Z,15.88
2022-10-05T20:48:39.365Z,15.88
2022-10-05T20:50:44.161Z,15.87
2022-10-05T20:52:49.398Z,15.86
2022-10-05T20:54:54.348Z,15.86
2022-10-05T20:56:59.530Z,15.85
2022-10-05T20:59:04.427Z,15.83
2022-10-05T21:01:09.393Z,15.80
2022-10-05T21:03:14.168Z,15.80
2022-10-05T21:05:19.051Z,15.80
2022-10-05T21:07:23.922Z,15.83
2022-10-05T21:09:29.459Z,15.81
2022-10-05T21:11:34.104Z,15.79
2022-10-05T21:13:39.803Z,15.76
2022-10-05T21:15:44.522Z,15.74
2022-10-05T21:17:49.195Z,15.73
2022-10-05T21:19:53.920Z,15.71
2022-10-05T21:21:58.728Z,15.72
2022-10-05T21:24:04.162Z,15.73
2022-10-05T21:26:09.196Z,15.72
2022-10-05T21:28:14.084Z,15.72
2022-10-05T21:30:19.377Z,15.70
2022-10-05T21:32:24.404Z,15.66
2022-10-05T21:34:29.260Z,15.60
2022-10-05T21:36:34.698Z,15.54
2022-10-05T21:38:39.483Z,15.47
2022-10-05T21:40:44.303Z,15.42
2022-10-05T21:42:49.106Z,15.38
2022-10-05T21:44:53.815Z,15.36
2022-10-05T21:46:58.740Z,15.33
2022-10-05T21:49:03.719Z,15.27
2022-10-05T21:51:10.281Z,15.20
2022-10-05T21:53:21.254Z,15.16
2022-10-05T21:55:26.389Z,15.11
2022-10-05T21:57:31.629Z,15.08
2022-10-05T21:59:36.623Z,15.04
2022-10-05T22:01:41.327Z,15.01
2022-10-05T22:03:46.123Z,14.99
2022-10-05T22:05:51.017Z,14.99
2022-10-05T22:07:56.348Z,14.98
2022-10-05T22:10:01.150Z,14.96
2022-10-05T22:12:06.144Z,14.95
2022-10-05T22:14:14.069Z,14.93
2022-10-05T22:16:21.301Z,14.90
2022-10-05T22:18:27.077Z,14.92
2022-10-05T22:20:34.006Z,14.93
2022-10-05T22:22:38.863Z,14.92
2022-10-05T22:24:43.607Z,14.92
2022-10-05T22:26:50.394Z,14.93
2022-10-05T22:28:55.209Z,14.94
2022-10-05T22:31:01.942Z,14.91
2022-10-05T22:33:06.726Z,14.87
2022-10-05T22:35:11.974Z,14.84
2022-10-05T22:37:16.965Z,14.78
2022-10-05T22:39:21.698Z,14.72
2022-10-05T22:41:26.510Z,14.66
2022-10-05T22:43:31.189Z,14.61
2022-10-05T22:45:35.973Z,14.59
2022-10-05T22:47:40.694Z,14.59
2022-10-05T22:49:45.495Z,14.60
2022-10-05T22:51:51.219Z,14.61
2022-10-05T22:53:55.969Z,14.63
2022-10-05T22:56:05.684Z,14.66
2022-10-05T22:58:10.373Z,14.69
2022-10-05T23:00:18.471Z,14.71
2022-10-05T23:02:26.274Z,14.74
2022-10-05T23:04:31.061Z,14.74
2022-10-05T23:06:35.828Z,14.74
2022-10-05T23:08:41.098Z,14.74
2022-10-05T23:10:45.770Z,14.73
2022-10-05T23:13:00.819Z,14.75
2022-10-05T23:15:08.211Z,14.75
2022-10-05T23:17:12.975Z,14.76
2022-10-05T23:19:18.047Z,14.73
2022-10-05T23:21:24.559Z,14.70
2022-10-05T23:23:29.316Z,14.68
2022-10-05T23:25:34.276Z,14.65
2022-10-05T23:27:40.590Z,14.64
2022-10-05T23:29:45.390Z,14.63
2022-10-05T23:31:50.107Z,14.64
2022-10-05T23:33:55.942Z,14.60
2022-10-05T23:36:02.315Z,14.56
2022-10-05T23:38:07.266Z,14.55
2022-10-05T23:40:13.883Z,14.53
2022-10-05T23:42:18.612Z,14.52
2022-10-05T23:44:23.394Z,14.51
2022-10-05T23:46:28.348Z,14.50
2022-10-05T23:48:34.016Z,14.45
2022-10-05T23:50:38.662Z,14.44
2022-10-05T23:52:43.479Z,14.44
2022-10-05T23:54:48.371Z,14.40
2022-10-05T23:56:53.088Z,14.34
2022-10-05T23:58:57.979Z,14.33
